createdAt,value
2022-10-08T00:00:01.304Z,42.96
2022-10-08T00:00:32.710Z,43.38
2022-10-08T00:01:04.102Z,43.03
2022-10-08T00:01:35.594Z,42.98
2022-10-08T00:02:07.100Z,42.94
2022-10-08T00:02:38.541Z,42.95
2022-10-08T00:03:09.933Z,43.01
2022-10-08T00:03:41.321Z,42.96
2022-10-08T00:04:12.775Z,43.29
2022-10-08T00:04:44.237Z,42.65
2022-10-08T00:05:15.665Z,42.89
2022-10-08T00:05:47.076Z,42.73
2022-10-08T00:06:18.572Z,43.08
2022-10-08T00:06:49.954Z,42.86
2022-10-08T00:07:21.344Z,42.97
2022-10-08T00:07:52.733Z,42.68
2022-10-08T00:08:24.151Z,43.10
2022-10-08T00:08:55.535Z,42.95
2022-10-08T00:09:26.924Z,42.60
2022-10-08T00:09:58.316Z,42.75
2022-10-08T00:10:29.699Z,42.76
2022-10-08T00:11:01.084Z,42.66
2022-10-08T00:11:32.549Z,42.92
2022-10-08T00:12:03.933Z,42.79
2022-10-08T00:12:35.326Z,42.92
2022-10-08T00:13:06.808Z,42.96
2022-10-08T00:13:38.196Z,42.97
2022-10-08T00:14:09.590Z,43.02
2022-10-08T00:14:40.985Z,42.96
2022-10-08T00:15:12.373Z,42.90
2022-10-08T00:15:43.773Z,42.88
2022-10-08T00:16:15.362Z,42.88
2022-10-08T00:16:46.804Z,42.54
2022-10-08T00:17:18.187Z,43.08
2022-10-08T00:17:49.574Z,43.01
2022-10-08T00:18:20.989Z,42.53
2022-10-08T00:18:52.927Z,42.83
2022-10-08T00:19:24.330Z,42.68
2022-10-08T00:19:55.720Z,43.19
2022-10-08T00:20:27.104Z,42.91
2022-10-08T00:20:58.489Z,43.14
2022-10-08T00:21:29.958Z,43.16
2022-10-08T00:22:01.384Z,42.61
2022-10-08T00:22:32.789Z,43.04
2022-10-08T00:23:04.196Z,43.06
2022-10-08T00:23:35.588Z,43.30
2022-10-08T00:24:06.976Z,42.73
2022-10-08T00:24:38.380Z,43.24
2022-10-08T00:25:09.769Z,43.25
2022-10-08T00:25:41.172Z,42.93
2022-10-08T00:26:12.561Z,42.98
2022-10-08T00:26:44.555Z,42.79
2022-10-08T00:27:16.141Z,43.12
2022-10-08T00:27:47.537Z,42.81
2022-10-08T00:28:18.974Z,43.23
2022-10-08T00:28:50.469Z,42.74
2022-10-08T00:29:21.853Z,43.31
2022-10-08T00:29:53.241Z,43.01
2022-10-08T00:30:24.628Z,43.32
2022-10-08T00:30:56.087Z,42.80
2022-10-08T00:31:27.546Z,42.85
2022-10-08T00:31:59.156Z,43.26
2022-10-08T00:32:30.634Z,43.20
2022-10-08T00:33:02.040Z,43.14
2022-10-08T00:33:33.443Z,43.13
2022-10-08T00:34:04.837Z,42.75
2022-10-08T00:34:36.243Z,42.79
2022-10-08T00:35:07.629Z,42.97
2022-10-08T00:35:39.037Z,43.30
2022-10-08T00:36:10.419Z,43.00
2022-10-08T00:36:41.908Z,42.81
2022-10-08T00:37:13.297Z,42.89
2022-10-08T00:37:44.684Z,43.06
2022-10-08T00:38:16.104Z,43.15
2022-10-08T00:38:47.519Z,42.85
2022-10-08T00:39:18.931Z,43.01
2022-10-08T00:39:50.331Z,43.18
2022-10-08T00:40:21.715Z,43.21
2022-10-08T00:40:53.104Z,43.17
2022-10-08T00:41:24.508Z,43.10
2022-10-08T00:41:55.946Z,42.66
2022-10-08T00:42:27.331Z,42.89
2022-10-08T00:42:58.712Z,42.95
2022-10-08T00:43:30.129Z,42.90
2022-10-08T00:44:01.512Z,43.24
2022-10-08T00:44:32.896Z,42.94
2022-10-08T00:45:04.312Z,42.95
2022-10-08T00:45:35.762Z,42.70
2022-10-08T00:46:07.234Z,43.27
2022-10-08T00:46:38.661Z,42.93
2022-10-08T00:47:10.119Z,43.00
2022-10-08T00:47:41.504Z,43.19
2022-10-08T00:48:12.896Z,42.87
2022-10-08T00:48:44.313Z,42.79
2022-10-08T00:49:15.696Z,43.05
2022-10-08T00:49:47.080Z,43.11
2022-10-08T00:50:18.473Z,42.77
2022-10-08T00:50:49.880Z,43.08
2022-10-08T00:51:21.264Z,43.01
2022-10-08T00:51:52.656Z,43.01
2022-10-08T00:52:24.182Z,42.83
2022-10-08T00:52:55.589Z,42.55
2022-10-08T00:53:26.977Z,42.90
2022-10-08T00:53:58.380Z,43.15
2022-10-08T00:54:29.899Z,43.24
2022-10-08T00:55:01.289Z,42.90
2022-10-08T00:55:32.705Z,43.32
2022-10-08T00:56:04.093Z,43.04
2022-10-08T00:56:35.494Z,42.89
2022-10-08T00:57:06.881Z,42.97
2022-10-08T00:57:38.347Z,42.92
2022-10-08T00:58:09.743Z,42.95
2022-10-08T00:58:41.138Z,42.79
2022-10-08T00:59:12.543Z,43.34
2022-10-08T00:59:43.960Z,42.78
2022-10-08T01:00:15.338Z,42.63
2022-10-08T01:00:46.795Z,42.71
2022-10-08T01:01:18.283Z,42.94
2022-10-08T01:01:49.750Z,43.21
2022-10-08T01:02:21.220Z,43.04
2022-10-08T01:02:52.720Z,42.89
2022-10-08T01:03:24.109Z,43.01
2022-10-08T01:03:55.528Z,42.75
2022-10-08T01:04:26.917Z,42.99
2022-10-08T01:04:58.389Z,43.40
2022-10-08T01:05:29.797Z,42.69
2022-10-08T01:06:01.266Z,42.97
2022-10-08T01:06:32.680Z,42.84
2022-10-08T01:07:04.066Z,42.90
2022-10-08T01:07:35.454Z,42.79
2022-10-08T01:08:06.884Z,42.99
2022-10-08T01:08:38.289Z,43.17
2022-10-08T01:09:09.704Z,42.96
2022-10-08T01:09:41.112Z,42.86
2022-10-08T01:10:12.496Z,43.00
2022-10-08T01:10:43.895Z,42.81
2022-10-08T01:11:15.280Z,42.76
2022-10-08T01:11:46.718Z,42.97
2022-10-08T01:12:18.124Z,42.64
2022-10-08T01:12:49.740Z,42.85
2022-10-08T01:13:21.188Z,43.16
2022-10-08T01:13:52.576Z,43.09
2022-10-08T01:14:23.998Z,42.78
2022-10-08T01:14:55.407Z,42.87
2022-10-08T01:15:26.801Z,43.12
2022-10-08T01:15:58.224Z,42.95
2022-10-08T01:16:29.728Z,43.06
2022-10-08T01:17:01.146Z,43.27
2022-10-08T01:17:32.540Z,42.77
2022-10-08T01:18:03.967Z,42.98
2022-10-08T01:18:35.355Z,42.65
2022-10-08T01:19:06.741Z,43.03
2022-10-08T01:19:38.123Z,42.92
2022-10-08T01:20:09.512Z,42.90
2022-10-08T01:20:40.900Z,43.15
2022-10-08T01:21:12.285Z,42.72
2022-10-08T01:21:43.678Z,42.89
2022-10-08T01:22:15.064Z,42.83
2022-10-08T01:22:46.667Z,42.72
2022-10-08T01:23:18.246Z,43.07
2022-10-08T01:23:49.632Z,42.51
2022-10-08T01:24:21.050Z,42.73
2022-10-08T01:24:52.435Z,42.92
2022-10-08T01:25:23.821Z,42.90
2022-10-08T01:25:55.208Z,43.15
2022-10-08T01:26:26.595Z,43.00
2022-10-08T01:26:58.002Z,42.60
2022-10-08T01:27:29.386Z,43.04
2022-10-08T01:28:00.927Z,43.13
2022-10-08T01:28:32.520Z,43.13
2022-10-08T01:29:03.990Z,42.83
2022-10-08T01:29:35.385Z,42.63
2022-10-08T01:30:06.796Z,42.98
2022-10-08T01:30:38.212Z,42.75
2022-10-08T01:31:09.638Z,42.94
2022-10-08T01:31:41.122Z,42.95
2022-10-08T01:32:12.565Z,42.57
2022-10-08T01:32:44.181Z,42.49
2022-10-08T01:33:15.780Z,43.07
2022-10-08T01:33:47.274Z,42.62
2022-10-08T01:34:18.669Z,42.72
2022-10-08T01:34:50.061Z,42.97
2022-10-08T01:35:21.445Z,42.89
2022-10-08T01:35:52.852Z,43.25
2022-10-08T01:36:24.239Z,43.05
2022-10-08T01:36:55.644Z,42.74
2022-10-08T01:37:27.039Z,42.93
2022-10-08T01:37:58.423Z,42.67
2022-10-08T01:38:29.808Z,42.87
2022-10-08T01:39:01.231Z,42.45
2022-10-08T01:39:32.619Z,42.95
2022-10-08T01:40:04.009Z,42.83
2022-10-08T01:40:35.396Z,42.96
2022-10-08T01:41:06.802Z,43.20
2022-10-08T01:41:38.248Z,43.14
2022-10-08T01:42:09.665Z,42.66
2022-10-08T01:42:41.066Z,42.95
2022-10-08T01:43:12.501Z,42.97
2022-10-08T01:43:43.902Z,42.80
2022-10-08T01:44:15.319Z,42.83
2022-10-08T01:44:46.706Z,42.84
2022-10-08T01:45:18.092Z,42.76
2022-10-08T01:45:49.537Z,42.80
2022-10-08T01:46:20.973Z,43.27
2022-10-08T01:46:52.362Z,42.86
2022-10-08T01:47:23.762Z,42.75
2022-10-08T01:47:55.150Z,43.21
2022-10-08T01:48:26.545Z,42.64
2022-10-08T01:48:57.928Z,43.24
2022-10-08T01:49:29.322Z,42.72
2022-10-08T01:50:00.729Z,42.91
2022-10-08T01:50:32.133Z,43.06
2022-10-08T01:51:03.521Z,42.94
2022-10-08T01:51:34.909Z,43.48
2022-10-08T01:52:06.302Z,42.98
2022-10-08T01:52:37.767Z,43.21
2022-10-08T01:53:09.152Z,42.84
2022-10-08T01:53:40.539Z,42.94
2022-10-08T01:54:11.972Z,42.79
2022-10-08T01:54:43.520Z,42.87
2022-10-08T01:55:14.924Z,42.87
2022-10-08T01:55:46.364Z,42.85
2022-10-08T01:56:17.768Z,42.97
2022-10-08T01:56:49.209Z,42.86
2022-10-08T01:57:20.603Z,43.11
2022-10-08T01:57:52.003Z,43.03
2022-10-08T01:58:23.408Z,42.65
2022-10-08T01:58:54.812Z,43.35
2022-10-08T01:59:26.248Z,43.06
2022-10-08T01:59:57.627Z,42.97
2022-10-08T02:00:29.012Z,43.04
2022-10-08T02:01:00.492Z,43.03
2022-10-08T02:01:32.003Z,43.03
2022-10-08T02:02:03.508Z,42.93
2022-10-08T02:02:35.036Z,42.79
2022-10-08T02:03:06.517Z,43.01
2022-10-08T02:03:37.919Z,43.09
2022-10-08T02:04:09.329Z,42.81
2022-10-08T02:04:40.817Z,43.13
2022-10-08T02:05:12.201Z,43.09
2022-10-08T02:05:43.596Z,42.95
2022-10-08T02:06:15.004Z,42.91
2022-10-08T02:06:46.397Z,42.82
2022-10-08T02:07:17.780Z,43.70
2022-10-08T02:07:49.193Z,42.91
2022-10-08T02:08:20.582Z,43.28
2022-10-08T02:08:51.974Z,43.31
2022-10-08T02:09:23.453Z,42.94
2022-10-08T02:09:54.860Z,42.78
2022-10-08T02:10:26.259Z,42.90
2022-10-08T02:10:57.661Z,42.83
2022-10-08T02:11:29.066Z,43.36
2022-10-08T02:12:00.458Z,43.02
2022-10-08T02:12:31.850Z,42.83
2022-10-08T02:13:03.254Z,42.94
2022-10-08T02:13:34.727Z,43.35
2022-10-08T02:14:06.139Z,43.26
2022-10-08T02:14:37.612Z,42.94
2022-10-08T02:15:08.996Z,43.17
2022-10-08T02:15:40.391Z,43.00
2022-10-08T02:16:11.880Z,43.25
2022-10-08T02:16:43.367Z,42.65
2022-10-08T02:17:14.822Z,43.29
2022-10-08T02:17:46.225Z,42.94
2022-10-08T02:18:17.606Z,43.13
2022-10-08T02:18:49.016Z,43.11
2022-10-08T02:19:20.395Z,43.33
2022-10-08T02:19:51.878Z,42.78
2022-10-08T02:20:23.269Z,42.68
2022-10-08T02:20:54.657Z,42.90
2022-10-08T02:21:26.041Z,43.25
2022-10-08T02:21:57.426Z,43.08
2022-10-08T02:22:28.811Z,42.84
2022-10-08T02:23:00.198Z,43.16
2022-10-08T02:23:31.582Z,42.91
2022-10-08T02:24:02.970Z,42.86
2022-10-08T02:24:34.376Z,43.12
2022-10-08T02:25:05.821Z,42.98
2022-10-08T02:25:37.212Z,42.97
2022-10-08T02:26:08.601Z,43.03
2022-10-08T02:26:39.987Z,43.20
2022-10-08T02:27:11.372Z,43.00
2022-10-08T02:27:42.761Z,43.17
2022-10-08T02:28:14.184Z,42.87
2022-10-08T02:28:45.696Z,43.15
2022-10-08T02:29:17.148Z,42.95
2022-10-08T02:29:48.545Z,43.38
2022-10-08T02:30:19.938Z,42.76
2022-10-08T02:30:51.345Z,42.89
2022-10-08T02:31:22.754Z,43.14
2022-10-08T02:31:54.255Z,43.30
2022-10-08T02:32:25.693Z,43.28
2022-10-08T02:32:57.076Z,43.12
2022-10-08T02:33:28.482Z,43.28
2022-10-08T02:33:59.867Z,42.93
2022-10-08T02:34:31.255Z,43.12
2022-10-08T02:35:02.656Z,43.22
2022-10-08T02:35:34.074Z,43.18
2022-10-08T02:36:05.459Z,42.93
2022-10-08T02:36:36.849Z,43.03
2022-10-08T02:37:08.253Z,42.95
2022-10-08T02:37:39.712Z,43.32
2022-10-08T02:38:11.098Z,42.98
2022-10-08T02:38:42.501Z,42.99
2022-10-08T02:39:13.886Z,42.85
2022-10-08T02:39:45.274Z,43.19
2022-10-08T02:40:16.760Z,42.78
2022-10-08T02:40:48.139Z,42.95
2022-10-08T02:41:19.544Z,42.96
2022-10-08T02:41:50.950Z,43.02
2022-10-08T02:42:22.365Z,43.22
2022-10-08T02:42:53.757Z,42.80
2022-10-08T02:43:25.151Z,43.74
2022-10-08T02:43:56.539Z,43.22
2022-10-08T02:44:27.933Z,43.56
2022-10-08T02:44:59.400Z,42.86
2022-10-08T02:45:30.889Z,42.90
2022-10-08T02:46:02.371Z,43.09
2022-10-08T02:46:33.776Z,42.72
2022-10-08T02:47:05.172Z,42.72
2022-10-08T02:47:36.562Z,43.20
2022-10-08T02:48:08.024Z,42.73
2022-10-08T02:48:39.413Z,43.05
2022-10-08T02:49:10.797Z,43.12
2022-10-08T02:49:42.227Z,43.13
2022-10-08T02:50:13.672Z,43.11
2022-10-08T02:50:45.052Z,42.99
2022-10-08T02:51:16.463Z,43.51
2022-10-08T02:51:47.848Z,42.97
2022-10-08T02:52:19.228Z,42.91
2022-10-08T02:52:50.618Z,43.20
2022-10-08T02:53:22.004Z,43.04
2022-10-08T02:53:53.388Z,43.30
2022-10-08T02:54:24.773Z,42.90
2022-10-08T02:54:56.180Z,42.99
2022-10-08T02:55:27.613Z,42.74
2022-10-08T02:55:58.997Z,43.04
2022-10-08T02:56:30.400Z,43.11
2022-10-08T02:57:04.749Z,42.72
2022-10-08T02:57:39.976Z,42.97
2022-10-08T02:58:11.379Z,42.78
2022-10-08T02:58:42.791Z,43.05
2022-10-08T02:59:14.180Z,43.30
2022-10-08T02:59:45.575Z,43.02
2022-10-08T03:00:17.093Z,42.91
2022-10-08T03:00:48.708Z,42.88
2022-10-08T03:01:20.159Z,42.47
2022-10-08T03:01:51.650Z,43.04
2022-10-08T03:02:23.150Z,43.30
2022-10-08T03:02:54.592Z,43.10
2022-10-08T03:03:25.985Z,42.71
2022-10-08T03:03:57.400Z,42.95
2022-10-08T03:04:28.789Z,43.06
2022-10-08T03:05:00.321Z,43.04
2022-10-08T03:05:31.723Z,43.14
2022-10-08T03:06:03.163Z,42.83
2022-10-08T03:06:34.595Z,43.43
2022-10-08T03:07:05.983Z,43.46
2022-10-08T03:07:37.369Z,42.65
2022-10-08T03:08:08.779Z,42.81
2022-10-08T03:08:40.174Z,43.41
2022-10-08T03:09:11.556Z,42.94
2022-10-08T03:09:42.953Z,43.07
2022-10-08T03:10:14.363Z,42.72
2022-10-08T03:10:45.848Z,43.09
2022-10-08T03:11:17.255Z,42.85
2022-10-08T03:11:48.667Z,42.96
2022-10-08T03:12:20.059Z,43.04
2022-10-08T03:12:51.439Z,42.85
2022-10-08T03:13:22.829Z,42.81
2022-10-08T03:13:54.232Z,42.85
2022-10-08T03:14:25.728Z,43.11
2022-10-08T03:14:57.139Z,43.05
2022-10-08T03:15:28.529Z,42.96
2022-10-08T03:15:59.944Z,43.07
2022-10-08T03:16:31.405Z,42.74
2022-10-08T03:17:02.923Z,43.08
2022-10-08T03:17:34.353Z,42.87
2022-10-08T03:18:05.735Z,42.93
2022-10-08T03:18:37.152Z,42.95
2022-10-08T03:19:08.538Z,42.76
2022-10-08T03:19:39.920Z,42.96
2022-10-08T03:20:11.325Z,42.54
2022-10-08T03:20:42.708Z,43.27
2022-10-08T03:21:14.165Z,43.25
2022-10-08T03:21:45.559Z,43.25
2022-10-08T03:22:16.949Z,43.30
2022-10-08T03:22:48.589Z,43.21
2022-10-08T03:23:20.250Z,43.18
2022-10-08T03:23:51.640Z,43.08
2022-10-08T03:24:23.043Z,43.21
2022-10-08T03:24:56.848Z,43.30
2022-10-08T03:25:28.415Z,43.04
2022-10-08T03:25:59.808Z,43.17
2022-10-08T03:26:31.279Z,43.37
2022-10-08T03:27:02.667Z,43.21
2022-10-08T03:27:34.050Z,43.13
2022-10-08T03:28:05.504Z,42.98
2022-10-08T03:28:37.191Z,43.45
2022-10-08T03:29:08.620Z,43.15
2022-10-08T03:29:40.016Z,43.25
2022-10-08T03:30:11.402Z,43.14
2022-10-08T03:30:42.878Z,42.92
2022-10-08T03:31:14.334Z,43.04
2022-10-08T03:31:45.851Z,42.80
2022-10-08T03:32:17.254Z,43.35
2022-10-08T03:32:49.129Z,43.29
2022-10-08T03:33:20.828Z,42.86
2022-10-08T03:33:52.211Z,43.01
2022-10-08T03:34:23.601Z,42.91
2022-10-08T03:34:54.989Z,42.88
2022-10-08T03:35:26.396Z,43.11
2022-10-08T03:35:57.789Z,43.05
2022-10-08T03:36:29.182Z,42.86
2022-10-08T03:37:00.648Z,43.01
2022-10-08T03:37:32.058Z,43.36
2022-10-08T03:38:03.456Z,43.13
2022-10-08T03:38:34.851Z,43.17
2022-10-08T03:39:06.265Z,43.37
2022-10-08T03:39:37.677Z,43.38
2022-10-08T03:40:09.096Z,42.85
2022-10-08T03:40:40.521Z,43.16
2022-10-08T03:41:11.959Z,43.23
2022-10-08T03:41:43.349Z,42.74
2022-10-08T03:42:14.791Z,43.43
2022-10-08T03:42:46.383Z,42.82
2022-10-08T03:43:17.891Z,42.89
2022-10-08T03:43:49.269Z,42.85
2022-10-08T03:44:20.655Z,43.32
2022-10-08T03:44:52.060Z,43.12
2022-10-08T03:45:23.449Z,43.54
2022-10-08T03:45:54.873Z,43.17
2022-10-08T03:46:26.338Z,43.23
2022-10-08T03:46:57.764Z,43.22
2022-10-08T03:47:29.271Z,43.17
2022-10-08T03:48:00.675Z,43.15
2022-10-08T03:48:32.080Z,43.15
2022-10-08T03:49:03.465Z,42.91
2022-10-08T03:49:34.853Z,43.37
2022-10-08T03:50:06.250Z,43.06
2022-10-08T03:50:37.636Z,42.97
2022-10-08T03:51:09.030Z,43.55
2022-10-08T03:51:40.436Z,43.00
2022-10-08T03:52:11.838Z,43.26
2022-10-08T03:52:43.364Z,43.47
2022-10-08T03:53:14.776Z,43.58
2022-10-08T03:53:46.153Z,43.07
2022-10-08T03:54:17.563Z,43.30
2022-10-08T03:54:48.968Z,43.24
2022-10-08T03:55:20.356Z,43.51
2022-10-08T03:55:51.761Z,43.61
2022-10-08T03:56:23.161Z,42.84
2022-10-08T03:56:54.563Z,43.24
2022-10-08T03:57:25.962Z,43.32
2022-10-08T03:57:57.509Z,43.40
2022-10-08T03:58:28.886Z,43.37
2022-10-08T03:59:00.295Z,43.30
2022-10-08T03:59:31.692Z,43.40
2022-10-08T04:00:03.091Z,43.52
2022-10-08T04:00:34.497Z,43.29
2022-10-08T04:01:05.983Z,43.42
2022-10-08T04:01:37.475Z,43.37
2022-10-08T04:02:08.919Z,43.58
2022-10-08T04:02:40.402Z,43.35
2022-10-08T04:03:11.960Z,43.13
2022-10-08T04:03:43.423Z,42.98
2022-10-08T04:04:14.827Z,43.25
2022-10-08T04:04:46.232Z,42.99
2022-10-08T04:05:17.629Z,43.47
2022-10-08T04:05:49.019Z,43.51
2022-10-08T04:06:20.434Z,43.77
2022-10-08T04:06:51.826Z,43.75
2022-10-08T04:07:23.212Z,43.24
2022-10-08T04:07:54.630Z,43.48
2022-10-08T04:08:26.130Z,43.01
2022-10-08T04:08:57.512Z,43.47
2022-10-08T04:09:28.905Z,43.59
2022-10-08T04:10:00.297Z,43.45
2022-10-08T04:10:31.699Z,43.34
2022-10-08T04:11:03.102Z,43.47
2022-10-08T04:11:34.503Z,43.37
2022-10-08T04:12:06.018Z,43.38
2022-10-08T04:12:37.422Z,43.50
2022-10-08T04:13:08.812Z,43.80
2022-10-08T04:13:40.271Z,43.44
2022-10-08T04:14:11.658Z,43.08
2022-10-08T04:14:43.063Z,43.43
2022-10-08T04:15:14.467Z,44.00
2022-10-08T04:15:45.892Z,43.46
2022-10-08T04:16:17.355Z,43.64
2022-10-08T04:16:48.772Z,43.33
2022-10-08T04:17:20.182Z,43.63
2022-10-08T04:17:51.564Z,43.44
2022-10-08T04:18:22.963Z,43.71
2022-10-08T04:18:54.364Z,43.34
2022-10-08T04:19:25.776Z,43.46
2022-10-08T04:19:57.182Z,43.81
2022-10-08T04:20:28.581Z,43.33
2022-10-08T04:20:59.992Z,43.31
2022-10-08T04:21:31.374Z,43.63
2022-10-08T04:22:02.785Z,43.58
2022-10-08T04:22:34.194Z,43.60
2022-10-08T04:23:05.575Z,43.19
2022-10-08T04:23:36.983Z,43.46
2022-10-08T04:24:08.409Z,43.12
2022-10-08T04:24:39.861Z,43.66
2022-10-08T04:25:11.311Z,43.46
2022-10-08T04:25:42.712Z,43.52
2022-10-08T04:26:14.107Z,43.31
2022-10-08T04:26:45.511Z,43.51
2022-10-08T04:27:17.025Z,43.74
2022-10-08T04:27:48.415Z,43.45
2022-10-08T04:28:19.889Z,43.73
2022-10-08T04:28:51.483Z,43.25
2022-10-08T04:29:22.923Z,43.45
2022-10-08T04:29:54.328Z,43.80
2022-10-08T04:30:25.728Z,43.47
2022-10-08T04:30:57.178Z,43.50
2022-10-08T04:31:28.697Z,43.37
2022-10-08T04:32:00.171Z,43.84
2022-10-08T04:32:31.558Z,43.64
2022-10-08T04:33:02.958Z,43.51
2022-10-08T04:33:34.343Z,43.49
2022-10-08T04:34:05.797Z,43.44
2022-10-08T04:34:37.193Z,43.88
2022-10-08T04:35:08.592Z,43.33
2022-10-08T04:35:39.981Z,43.62
2022-10-08T04:36:11.364Z,43.49
2022-10-08T04:36:42.749Z,43.50
2022-10-08T04:37:14.143Z,43.78
2022-10-08T04:37:45.552Z,43.64
2022-10-08T04:38:16.940Z,43.76
2022-10-08T04:38:48.338Z,43.87
2022-10-08T04:39:19.763Z,43.18
2022-10-08T04:39:51.155Z,43.94
2022-10-08T04:40:22.548Z,43.30
2022-10-08T04:40:53.932Z,43.95
2022-10-08T04:41:25.320Z,43.49
2022-10-08T04:41:56.701Z,43.58
2022-10-08T04:42:28.091Z,43.63
2022-10-08T04:42:59.516Z,44.09
2022-10-08T04:43:30.906Z,43.46
2022-10-08T04:44:02.375Z,43.71
2022-10-08T04:44:33.762Z,43.60
2022-10-08T04:45:05.176Z,43.68
2022-10-08T04:45:36.563Z,43.57
2022-10-08T04:46:07.993Z,43.22
2022-10-08T04:46:39.524Z,43.75
2022-10-08T04:47:10.953Z,43.91
2022-10-08T04:47:42.370Z,43.68
2022-10-08T04:48:13.765Z,43.52
2022-10-08T04:48:45.156Z,43.81
2022-10-08T04:49:16.644Z,43.79
2022-10-08T04:49:48.034Z,43.85
2022-10-08T04:50:19.424Z,44.10
2022-10-08T04:50:50.893Z,43.65
2022-10-08T04:51:22.276Z,43.95
2022-10-08T04:51:53.658Z,43.94
2022-10-08T04:52:25.060Z,43.56
2022-10-08T04:52:56.459Z,43.77
2022-10-08T04:53:27.852Z,43.95
2022-10-08T04:53:59.244Z,43.79
2022-10-08T04:54:30.714Z,43.53
2022-10-08T04:55:02.100Z,43.95
2022-10-08T04:55:33.484Z,43.58
2022-10-08T04:56:04.890Z,43.75
2022-10-08T04:56:36.295Z,43.68
2022-10-08T04:57:07.695Z,44.04
2022-10-08T04:57:39.101Z,43.76
2022-10-08T04:58:10.519Z,43.64
2022-10-08T04:58:41.925Z,43.46
2022-10-08T04:59:13.335Z,44.22
2022-10-08T05:00:05.755Z,43.84
2022-10-08T05:00:36.089Z,43.77
2022-10-08T05:01:07.473Z,43.22
2022-10-08T05:01:38.924Z,43.80
2022-10-08T05:02:10.377Z,43.73
2022-10-08T05:02:41.782Z,44.37
2022-10-08T05:03:13.259Z,43.89
2022-10-08T05:03:44.809Z,43.67
2022-10-08T05:04:16.288Z,43.78
2022-10-08T05:04:47.730Z,44.17
2022-10-08T05:05:19.121Z,43.67
2022-10-08T05:05:50.512Z,43.73
2022-10-08T05:06:21.912Z,44.02
2022-10-08T05:06:53.308Z,43.93
2022-10-08T05:07:24.893Z,43.69
2022-10-08T05:07:56.339Z,43.94
2022-10-08T05:08:27.821Z,43.79
2022-10-08T05:08:59.231Z,43.85
2022-10-08T05:09:30.711Z,44.06
2022-10-08T05:10:02.092Z,43.99
2022-10-08T05:10:33.476Z,44.23
2022-10-08T05:11:04.883Z,44.31
2022-10-08T05:11:36.259Z,43.73
2022-10-08T05:12:07.646Z,44.25
2022-10-08T05:12:39.069Z,43.55
2022-10-08T05:13:10.456Z,44.02
2022-10-08T05:13:41.845Z,44.28
2022-10-08T05:14:13.253Z,43.76
2022-10-08T05:14:44.760Z,43.77
2022-10-08T05:15:16.146Z,43.67
2022-10-08T05:15:47.545Z,43.81
2022-10-08T05:16:19.062Z,44.08
2022-10-08T05:16:50.485Z,43.71
2022-10-08T05:17:21.867Z,44.04
2022-10-08T05:17:53.280Z,44.21
2022-10-08T05:18:24.671Z,44.30
2022-10-08T05:18:56.055Z,43.96
2022-10-08T05:19:27.456Z,44.29
2022-10-08T05:19:58.868Z,44.05
2022-10-08T05:20:30.288Z,44.18
2022-10-08T05:21:01.674Z,43.99
2022-10-08T05:21:33.059Z,43.86
2022-10-08T05:22:04.455Z,44.07
2022-10-08T05:22:35.844Z,44.28
2022-10-08T05:23:07.252Z,44.24
2022-10-08T05:23:38.636Z,44.02
2022-10-08T05:24:10.031Z,43.96
2022-10-08T05:24:41.417Z,44.17
2022-10-08T05:25:12.876Z,43.92
2022-10-08T05:25:44.267Z,44.31
2022-10-08T05:26:15.684Z,44.05
2022-10-08T05:26:58.221Z,43.93
2022-10-08T05:27:30.356Z,43.97
2022-10-08T05:28:01.817Z,43.80
2022-10-08T05:28:33.352Z,43.98
2022-10-08T05:29:04.857Z,44.08
2022-10-08T05:29:36.241Z,44.16
2022-10-08T05:30:07.640Z,44.56
2022-10-08T05:30:39.064Z,44.01
2022-10-08T05:31:10.543Z,44.42
2022-10-08T05:31:42.016Z,43.78
2022-10-08T05:32:13.445Z,44.10
2022-10-08T05:32:45.151Z,44.26
2022-10-08T05:33:16.895Z,44.02
2022-10-08T05:33:48.358Z,44.01
2022-10-08T05:34:19.746Z,44.01
2022-10-08T05:34:51.139Z,44.29
2022-10-08T05:35:22.574Z,44.31
2022-10-08T05:35:53.984Z,44.39
2022-10-08T05:36:25.388Z,44.35
2022-10-08T05:36:56.776Z,44.02
2022-10-08T05:37:28.160Z,44.01
2022-10-08T05:37:59.554Z,44.39
2022-10-08T05:38:34.738Z,43.84
2022-10-08T05:39:06.621Z,44.33
2022-10-08T05:39:38.013Z,44.42
2022-10-08T05:40:09.424Z,44.31
2022-10-08T05:40:40.920Z,44.38
2022-10-08T05:41:12.304Z,44.19
2022-10-08T05:41:43.696Z,44.01
2022-10-08T05:42:15.105Z,43.85
2022-10-08T05:42:46.692Z,44.31
2022-10-08T05:43:18.332Z,43.95
2022-10-08T05:43:49.718Z,43.96
2022-10-08T05:44:21.101Z,44.31
2022-10-08T05:44:52.487Z,44.20
2022-10-08T05:45:23.892Z,44.47
2022-10-08T05:45:55.391Z,44.03
2022-10-08T05:46:26.956Z,44.41
2022-10-08T05:46:58.497Z,44.01
2022-10-08T05:47:29.908Z,43.82
2022-10-08T05:48:01.303Z,44.05
2022-10-08T05:48:32.687Z,44.24
2022-10-08T05:49:04.207Z,43.82
2022-10-08T05:49:35.613Z,44.27
2022-10-08T05:50:07.006Z,44.04
2022-10-08T05:50:38.397Z,44.02
2022-10-08T05:51:09.855Z,44.61
2022-10-08T05:51:41.241Z,44.18
2022-10-08T05:52:12.635Z,44.40
2022-10-08T05:52:44.363Z,44.64
2022-10-08T05:53:15.971Z,43.99
2022-10-08T05:53:47.384Z,44.19
2022-10-08T05:54:18.798Z,44.51
2022-10-08T05:54:50.179Z,44.13
2022-10-08T05:55:21.603Z,43.94
2022-10-08T05:55:53.007Z,44.45
2022-10-08T05:56:24.456Z,44.27
2022-10-08T05:56:55.860Z,44.19
2022-10-08T05:57:27.266Z,44.18
2022-10-08T05:57:58.671Z,44.43
2022-10-08T05:58:30.648Z,44.06
2022-10-08T05:59:02.105Z,44.20
2022-10-08T05:59:33.516Z,44.21
2022-10-08T06:00:04.959Z,44.36
2022-10-08T06:00:36.372Z,44.14
2022-10-08T06:01:07.826Z,44.31
2022-10-08T06:01:39.312Z,43.97
2022-10-08T06:02:10.695Z,44.39
2022-10-08T06:02:42.129Z,44.04
2022-10-08T06:03:13.598Z,44.21
2022-10-08T06:03:45.007Z,44.43
2022-10-08T06:04:16.502Z,44.27
2022-10-08T06:04:48.136Z,44.23
2022-10-08T06:05:19.594Z,44.37
2022-10-08T06:05:50.977Z,44.51
2022-10-08T06:06:22.459Z,44.13
2022-10-08T06:06:53.879Z,44.01
2022-10-08T06:07:25.260Z,44.73
2022-10-08T06:07:56.669Z,44.28
2022-10-08T06:08:28.063Z,44.31
2022-10-08T06:08:59.452Z,44.54
2022-10-08T06:09:30.839Z,44.14
2022-10-08T06:10:02.220Z,44.21
2022-10-08T06:10:33.601Z,44.33
2022-10-08T06:11:04.993Z,44.33
2022-10-08T06:11:36.509Z,44.05
2022-10-08T06:12:07.900Z,44.13
2022-10-08T06:12:39.303Z,44.19
2022-10-08T06:13:10.685Z,44.55
2022-10-08T06:13:42.071Z,44.25
2022-10-08T06:14:13.487Z,44.01
2022-10-08T06:14:44.895Z,44.54
2022-10-08T06:15:16.299Z,44.46
2022-10-08T06:15:47.729Z,44.62
2022-10-08T06:16:19.249Z,44.30
2022-10-08T06:16:50.684Z,44.18
2022-10-08T06:17:22.068Z,44.08
2022-10-08T06:17:53.467Z,44.49
2022-10-08T06:18:24.870Z,44.17
2022-10-08T06:18:56.266Z,44.04
2022-10-08T06:19:27.674Z,44.55
2022-10-08T06:19:59.060Z,44.14
2022-10-08T06:20:32.134Z,44.04
2022-10-08T06:21:03.690Z,44.18
2022-10-08T06:21:35.085Z,43.98
2022-10-08T06:22:06.592Z,44.43
2022-10-08T06:22:37.985Z,44.47
2022-10-08T06:23:09.367Z,44.01
2022-10-08T06:23:40.757Z,44.38
2022-10-08T06:24:12.164Z,44.40
2022-10-08T06:24:43.556Z,44.54
2022-10-08T06:25:14.941Z,44.29
2022-10-08T06:25:46.352Z,43.67
2022-10-08T06:26:17.757Z,44.50
2022-10-08T06:26:49.154Z,44.27
2022-10-08T06:27:20.631Z,43.96
2022-10-08T06:27:52.011Z,44.40
2022-10-08T06:28:23.487Z,44.49
2022-10-08T06:28:54.911Z,44.46
2022-10-08T06:29:26.296Z,44.41
2022-10-08T06:29:57.681Z,44.07
2022-10-08T06:30:29.157Z,44.39
2022-10-08T06:31:00.601Z,44.20
2022-10-08T06:31:32.066Z,44.52
2022-10-08T06:32:03.501Z,44.49
2022-10-08T06:32:34.994Z,44.28
2022-10-08T06:33:06.390Z,44.32
2022-10-08T06:33:37.835Z,44.68
2022-10-08T06:34:09.221Z,44.33
2022-10-08T06:34:40.665Z,44.36
2022-10-08T06:35:12.069Z,44.41
2022-10-08T06:35:43.463Z,44.06
2022-10-08T06:36:14.857Z,44.17
2022-10-08T06:36:46.259Z,44.38
2022-10-08T06:37:17.655Z,44.19
2022-10-08T06:37:49.059Z,44.33
2022-10-08T06:38:20.449Z,44.46
2022-10-08T06:38:51.862Z,44.08
2022-10-08T06:39:23.263Z,44.29
2022-10-08T06:39:54.661Z,43.99
2022-10-08T06:40:26.048Z,44.22
2022-10-08T06:40:57.437Z,44.07
2022-10-08T06:41:28.833Z,44.44
2022-10-08T06:42:00.249Z,44.09
2022-10-08T06:42:31.801Z,44.42
2022-10-08T06:43:03.185Z,44.09
2022-10-08T06:43:34.592Z,44.42
2022-10-08T06:44:05.976Z,44.07
2022-10-08T06:44:37.371Z,44.11
2022-10-08T06:45:08.880Z,43.89